Time;durP1;ratioP1;P1;durP2;ratioP2;P2;SDS_P1;SDS_P2;PMS_P1;PMS_P2;Temp;Humidity;BMP_temperature;BMP_pressure;BME280_temperature;BME280_humidity;BME280_pressure;Samples;Min_cycle;Max_cycle;Signal;HPM_P1;HPM_P2
2023/05/31 00:01:16;;;;;;;16.27;4.05;;;;;;;14.21;100.00;101860.13;5060403;28;20036;-77
2023/05/31 00:03:43;;;;;;;20.65;4.93;;;;;;;14.27;100.00;101856.91;5090652;28;20051;-77
2023/05/31 00:06:12;;;;;;;15.40;4.28;;;;;;;14.20;100.00;101860.25;5090894;28;20040;-77
2023/05/31 00:08:39;;;;;;;15.38;4.00;;;;;;;13.94;100.00;101856.22;5058585;28;20036;-78
2023/05/31 00:11:06;;;;;;;14.30;4.13;;;;;;;13.72;100.00;101851.88;5088389;28;20608;-80
2023/05/31 00:13:31;;;;;;;12.73;3.58;;;;;;;13.44;100.00;101846.22;5110008;28;20039;-80
2023/05/31 00:15:57;;;;;;;11.93;3.70;;;;;;;13.32;100.00;101850.72;5110983;28;20039;-77
2023/05/31 00:18:23;;;;;;;15.07;4.18;;;;;;;13.26;100.00;101846.78;5091251;28;20060;-77
2023/05/31 00:20:49;;;;;;;12.40;4.22;;;;;;;13.26;100.00;101844.13;5105716;28;20024;-78
2023/05/31 00:23:15;;;;;;;14.25;4.13;;;;;;;13.24;100.00;101838.94;5112050;28;20023;-78
2023/05/31 00:25:41;;;;;;;15.32;4.03;;;;;;;13.28;100.00;101844.84;5080737;28;20040;-78
2023/05/31 00:28:07;;;;;;;9.55;4.63;;;;;;;13.36;100.00;101849.53;5090850;28;20077;-78
2023/05/31 00:30:33;;;;;;;15.95;4.07;;;;;;;13.55;100.00;101848.00;5075112;28;20693;-77
2023/05/31 00:32:59;;;;;;;12.18;4.13;;;;;;;13.66;100.00;101852.41;5076245;28;20057;-78
2023/05/31 00:35:24;;;;;;;17.50;4.22;;;;;;;13.74;100.00;101849.94;5077446;28;20088;-78
2023/05/31 00:37:50;;;;;;;18.52;3.45;;;;;;;13.79;100.00;101844.25;5080952;28;20397;-78
2023/05/31 00:40:16;;;;;;;8.40;3.35;;;;;;;13.80;100.00;101844.09;5073670;28;20093;-80
2023/05/31 00:42:42;;;;;;;12.65;3.80;;;;;;;13.77;100.00;101842.56;5087299;28;20142;-80
2023/05/31 00:45:08;;;;;;;13.52;3.58;;;;;;;13.73;100.00;101837.63;5077440;28;20115;-77
2023/05/31 00:47:37;;;;;;;6.53;3.80;;;;;;;13.76;100.00;101840.84;5076225;28;20036;-78
2023/05/31 00:50:04;;;;;;;11.57;4.03;;;;;;;13.69;100.00;101830.88;5093643;28;20034;-78
2023/05/31 00:52:32;;;;;;;10.23;3.80;;;;;;;13.67;100.00;101835.47;5090232;28;20036;-78
2023/05/31 00:55:10;;;;;;;10.98;3.65;;;;;;;13.65;100.00;101840.94;5087040;28;20032;-78
2023/05/31 00:57:38;;;;;;;9.05;3.38;;;;;;;13.52;100.00;101830.53;5075754;28;20064;-78
2023/05/31 01:00:05;;;;;;;11.85;3.42;;;;;;;13.45;100.00;101834.63;5075083;28;20019;-78
2023/05/31 01:02:34;;;;;;;13.55;4.00;;;;;;;13.35;100.00;101831.88;5074395;28;20093;-78
2023/05/31 01:05:01;;;;;;;10.40;3.83;;;;;;;13.31;100.00;101839.28;5090132;28;20063;-77
2023/05/31 01:07:27;;;;;;;10.15;3.72;;;;;;;13.37;100.00;101832.59;5088981;28;20032;-77
2023/05/31 01:09:53;;;;;;;16.02;4.70;;;;;;;13.39;100.00;101836.81;5075437;28;20091;-77
2023/05/31 01:12:22;;;;;;;14.95;3.63;;;;;;;13.40;100.00;101835.84;5109806;28;20394;-78
2023/05/31 01:15:20;;;;;;;12.02;4.47;;;;;;;13.39;100.00;101838.63;5049635;28;20139;-78
2023/05/31 01:18:00;;;;;;;9.90;4.35;;;;;;;13.36;100.00;101831.75;5083795;28;20038;-78
2023/05/31 01:20:34;;;;;;;22.60;4.85;;;;;;;13.38;100.00;101821.00;5105388;28;20051;-78
2023/05/31 01:23:04;;;;;;;15.07;4.22;;;;;;;13.34;100.00;101830.22;5077092;28;20036;-78
2023/05/31 01:26:04;;;;;;;17.17;5.00;;;;;;;13.36;100.00;101821.13;5084814;28;20036;-77
2023/05/31 01:28:34;;;;;;;12.27;3.75;;;;;;;13.35;100.00;101830.06;5069270;28;20225;-78
2023/05/31 01:31:04;;;;;;;17.17;4.40;;;;;;;13.41;100.00;101826.06;5079551;28;20040;-78
2023/05/31 01:33:31;;;;;;;14.13;4.13;;;;;;;13.44;100.00;101827.63;5080895;28;20038;-78
2023/05/31 01:35:56;;;;;;;16.67;4.10;;;;;;;13.46;100.00;101826.53;5075725;28;20039;-77
2023/05/31 01:38:22;;;;;;;12.52;3.83;;;;;;;13.47;100.00;101832.69;5092493;28;20549;-78
2023/05/31 01:40:49;;;;;;;23.55;4.88;;;;;;;13.45;100.00;101826.66;5092632;28;20032;-78
2023/05/31 01:43:17;;;;;;;11.85;3.67;;;;;;;13.36;100.00;101838.91;5073603;28;20043;-78
2023/05/31 01:45:43;;;;;;;16.58;4.57;;;;;;;13.27;100.00;101833.38;5070164;28;20031;-77
2023/05/31 01:48:10;;;;;;;13.38;3.47;;;;;;;13.21;100.00;101828.59;5072542;28;20036;-78
2023/05/31 01:50:36;;;;;;;11.95;4.10;;;;;;;13.13;100.00;101831.03;5100074;28;20028;-77
2023/05/31 01:53:06;;;;;;;19.45;4.85;;;;;;;13.07;100.00;101828.88;5072259;28;20047;-78
2023/05/31 01:55:33;;;;;;;18.20;4.55;;;;;;;13.06;100.00;101832.50;5074852;28;20499;-78
2023/05/31 01:58:01;;;;;;;13.35;4.43;;;;;;;13.00;100.00;101833.84;5091784;28;20042;-78
2023/05/31 02:00:29;;;;;;;14.15;4.53;;;;;;;12.92;100.00;101838.91;5069566;28;20028;-77
2023/05/31 02:02:55;;;;;;;16.73;4.18;;;;;;;12.81;100.00;101834.50;5065883;28;20031;-78
2023/05/31 02:05:21;;;;;;;13.30;4.18;;;;;;;12.82;100.00;101837.03;5082505;28;20032;-78
2023/05/31 02:07:47;;;;;;;19.02;4.50;;;;;;;12.81;100.00;101834.50;5065829;28;20038;-78
2023/05/31 02:10:15;;;;;;;12.45;4.47;;;;;;;12.85;100.00;101836.78;5046144;28;20028;-77
2023/05/31 02:12:42;;;;;;;14.02;4.65;;;;;;;12.87;100.00;101834.00;5069916;28;20039;-77
2023/05/31 02:15:10;;;;;;;12.02;4.53;;;;;;;12.91;100.00;101835.44;5083675;28;20036;-79
2023/05/31 02:17:42;;;;;;;18.10;4.80;;;;;;;13.02;100.00;101838.06;5062863;28;20036;-79
2023/05/31 02:20:13;;;;;;;15.20;4.25;;;;;;;13.10;100.00;101829.47;5056695;28;20032;-77
2023/05/31 02:22:40;;;;;;;16.63;5.15;;;;;;;13.06;100.00;101824.53;5100907;28;20043;-77
2023/05/31 02:25:08;;;;;;;14.95;5.20;;;;;;;13.05;100.00;101829.00;5073686;28;20028;-78
2023/05/31 02:27:34;;;;;;;15.07;4.43;;;;;;;12.94;100.00;101823.72;5086962;28;20040;-77
2023/05/31 02:30:00;;;;;;;21.42;5.13;;;;;;;12.85;100.00;101835.94;5075951;28;20429;-77
2023/05/31 02:32:26;;;;;;;17.02;4.65;;;;;;;12.87;100.00;101834.00;5071957;28;20069;-78
2023/05/31 02:34:51;;;;;;;14.77;4.57;;;;;;;12.92;100.00;101844.22;5076629;28;20047;-78
2023/05/31 02:37:19;;;;;;;13.95;4.05;;;;;;;12.92;100.00;101847.75;5110449;28;20434;-78
2023/05/31 02:39:45;;;;;;;10.48;3.90;;;;;;;12.92;100.00;101849.53;5075717;28;20040;-78
2023/05/31 02:42:10;;;;;;;10.82;3.83;;;;;;;12.94;100.00;101847.63;5091909;28;20047;-77
2023/05/31 02:44:37;;;;;;;15.65;4.60;;;;;;;12.94;100.00;101856.44;5065242;28;20454;-78
2023/05/31 02:47:05;;;;;;;10.85;4.55;;;;;;;12.83;100.00;101851.16;5085332;28;20042;-77
2023/05/31 02:49:31;;;;;;;14.65;4.18;;;;;;;12.60;100.00;101853.81;5066828;28;20040;-79
2023/05/31 02:51:57;;;;;;;21.17;5.13;;;;;;;12.40;100.00;101843.88;5075326;28;20038;-80
2023/05/31 02:54:29;;;;;;;16.17;4.80;;;;;;;12.24;100.00;101849.53;5098625;28;20481;-78
2023/05/31 02:56:54;;;;;;;16.17;4.38;;;;;;;12.11;100.00;101848.78;5071569;28;20032;-78
2023/05/31 02:59:21;;;;;;;15.07;5.15;;;;;;;12.06;100.00;101848.28;5085722;28;20777;-78
2023/05/31 03:01:58;;;;;;;18.73;4.80;;;;;;;11.93;100.00;101846.56;5046707;28;20051;-77
2023/05/31 03:04:41;;;;;;;14.98;4.80;;;;;;;11.89;100.00;101848.63;5101975;28;20066;-78
2023/05/31 03:07:07;;;;;;;16.48;5.13;;;;;;;11.81;100.00;101853.69;5056873;28;20122;-78
2023/05/31 03:09:34;;;;;;;13.63;4.97;;;;;;;11.74;100.00;101852.44;5046524;28;20035;-78
2023/05/31 03:12:02;;;;;;;16.52;5.53;;;;;;;11.66;100.00;101845.94;5088299;28;20040;-78
2023/05/31 03:14:28;;;;;;;15.93;5.10;;;;;;;11.62;100.00;101844.50;5064265;28;20035;-78
2023/05/31 03:16:55;;;;;;;14.98;4.63;;;;;;;11.61;100.00;101845.44;5087116;28;20065;-78
2023/05/31 03:19:22;;;;;;;16.65;4.70;;;;;;;11.63;100.00;101846.16;5066354;28;20054;-78
2023/05/31 03:21:51;;;;;;;15.05;4.85;;;;;;;11.65;100.00;101848.69;5071447;28;20028;-78
2023/05/31 03:24:16;;;;;;;17.80;5.65;;;;;;;11.70;100.00;101846.56;5085455;28;20035;-78
2023/05/31 03:26:45;;;;;;;14.80;5.25;;;;;;;11.70;100.00;101841.25;5060115;28;20124;-78
2023/05/31 03:29:11;;;;;;;12.10;4.68;;;;;;;11.67;100.00;101854.72;5061928;28;20126;-78
2023/05/31 03:31:37;;;;;;;16.40;5.43;;;;;;;11.63;100.00;101845.31;5072392;28;20032;-77
2023/05/31 03:34:03;;;;;;;15.05;4.80;;;;;;;11.58;100.00;101847.50;5084549;28;20026;-78
2023/05/31 03:36:28;;;;;;;12.50;5.18;;;;;;;11.56;100.00;101849.41;5088752;28;20035;-80
2023/05/31 03:38:56;;;;;;;14.23;4.95;;;;;;;11.52;100.00;101854.94;5070592;28;20409;-80
2023/05/31 03:41:22;;;;;;;16.55;5.30;;;;;;;11.54;100.00;101846.88;5061845;28;20044;-77
2023/05/31 03:43:50;;;;;;;13.30;5.45;;;;;;;11.53;100.00;101840.72;5078970;28;20514;-78
2023/05/31 03:46:16;;;;;;;17.05;5.80;;;;;;;11.56;100.00;101844.09;5094888;28;20036;-77
2023/05/31 03:48:42;;;;;;;18.65;5.05;;;;;;;11.56;100.00;101844.09;5077000;28;20038;-78
2023/05/31 03:51:08;;;;;;;18.13;4.70;;;;;;;11.57;100.00;101843.13;5113389;28;20623;-78
2023/05/31 03:53:33;;;;;;;13.48;4.80;;;;;;;11.56;100.00;101837.00;5080890;28;20050;-78
2023/05/31 03:56:00;;;;;;;18.42;5.53;;;;;;;11.58;100.00;101843.03;5094256;28;20039;-78
2023/05/31 03:58:26;;;;;;;13.68;4.75;;;;;;;11.59;100.00;101841.22;5069086;28;20201;-78
2023/05/31 04:00:52;;;;;;;15.60;5.07;;;;;;;11.63;100.00;101845.31;5074269;28;20020;-78
2023/05/31 04:03:18;;;;;;;18.98;5.30;;;;;;;11.65;100.00;101833.66;5072354;28;20106;-78
2023/05/31 04:05:44;;;;;;;10.88;4.20;;;;;;;11.74;100.00;101834.75;5057203;28;20177;-80
2023/05/31 04:08:10;;;;;;;12.95;4.78;;;;;;;11.82;100.00;101839.47;5067515;28;20032;-80
2023/05/31 04:10:35;;;;;;;12.75;3.80;;;;;;;11.84;100.00;101829.59;5068942;28;20031;-77
2023/05/31 04:13:01;;;;;;;13.75;4.50;;;;;;;11.96;100.00;101838.38;5077001;28;20514;-78
2023/05/31 04:15:28;;;;;;;16.15;4.85;;;;;;;12.07;100.00;101834.06;5081541;28;20031;-78
2023/05/31 04:17:58;;;;;;;17.23;4.78;;;;;;;12.14;100.00;101832.66;5067403;28;20056;-78
2023/05/31 04:20:24;;;;;;;11.48;4.57;;;;;;;12.19;100.00;101832.28;5089982;28;20110;-78
2023/05/31 04:22:50;;;;;;;17.45;5.28;;;;;;;12.15;100.00;101839.66;5077808;28;20046;-78
2023/05/31 04:25:17;;;;;;;15.45;4.32;;;;;;;12.02;100.00;101835.25;5073368;28;20036;-78
2023/05/31 04:27:43;;;;;;;11.07;4.13;;;;;;;11.89;100.00;101842.50;5069814;28;20066;-78
2023/05/31 04:30:09;;;;;;;16.55;4.95;;;;;;;11.81;100.00;101837.78;5080266;28;20485;-78
2023/05/31 04:32:35;;;;;;;16.00;4.80;;;;;;;11.75;100.00;101840.91;5074599;28;20100;-78
2023/05/31 04:35:06;;;;;;;18.00;5.20;;;;;;;11.72;100.00;101843.78;5074693;28;20032;-77
2023/05/31 04:37:35;;;;;;;16.73;5.13;;;;;;;11.72;100.00;101844.59;5093938;28;20039;-78
2023/05/31 04:40:05;;;;;;;16.92;4.70;;;;;;;11.77;100.00;101846.91;5047432;28;20042;-78
2023/05/31 04:42:31;;;;;;;12.25;3.70;;;;;;;11.80;100.00;101849.34;5047930;28;20063;-78
2023/05/31 04:45:00;;;;;;;15.48;4.97;;;;;;;11.82;100.00;101846.59;5076972;28;20114;-78
2023/05/31 04:47:29;;;;;;;10.80;4.68;;;;;;;11.82;100.00;101839.47;5057480;28;20039;-78
2023/05/31 04:49:57;;;;;;;13.40;4.05;;;;;;;11.84;100.00;101836.69;5075406;28;20032;-77
2023/05/31 04:52:32;;;;;;;12.73;4.55;;;;;;;11.77;100.00;101838.97;5088668;28;20048;-77
2023/05/31 04:55:00;;;;;;;14.30;3.97;;;;;;;11.70;100.00;101838.59;5063768;28;20032;-77
2023/05/31 04:57:27;;;;;;;9.48;3.58;;;;;;;11.64;100.00;101834.59;5072019;28;20467;-78
2023/05/31 04:59:53;;;;;;;14.88;4.50;;;;;;;11.63;100.00;101837.38;5069389;28;20031;-78
2023/05/31 05:02:20;;;;;;;13.13;4.15;;;;;;;11.64;100.00;101836.44;5064202;28;20119;-77
2023/05/31 05:04:47;;;;;;;13.63;3.92;;;;;;;11.68;100.00;101839.66;5059894;28;20035;-78
2023/05/31 05:07:16;;;;;;;21.27;4.80;;;;;;;11.75;100.00;101840.91;5086930;28;20031;-78
2023/05/31 05:09:42;;;;;;;14.40;3.72;;;;;;;11.84;100.00;101842.84;5064189;28;20106;-78
2023/05/31 05:12:09;;;;;;;13.13;3.97;;;;;;;11.91;100.00;101849.34;5078046;28;20058;-78
2023/05/31 05:14:38;;;;;;;16.17;4.63;;;;;;;11.91;100.00;101846.69;5084749;28;20032;-78
2023/05/31 05:17:05;;;;;;;19.15;5.18;;;;;;;11.95;100.00;101849.97;5019975;28;20567;-78
2023/05/31 05:19:32;;;;;;;13.00;4.22;;;;;;;11.99;100.00;101840.78;5048186;28;20104;-78
2023/05/31 05:21:58;;;;;;;12.45;4.22;;;;;;;12.02;100.00;101839.75;5062196;28;20509;-78
2023/05/31 05:24:23;;;;;;;12.88;3.90;;;;;;;12.07;100.00;101839.38;5055518;28;20497;-77
2023/05/31 05:26:49;;;;;;;12.95;4.10;;;;;;;12.12;100.00;101842.56;5071968;28;20024;-77
2023/05/31 05:29:15;;;;;;;14.00;4.72;;;;;;;12.15;100.00;101840.47;5053286;28;21503;-78
2023/05/31 05:31:44;;;;;;;9.30;3.70;;;;;;;12.26;100.00;101839.63;5052120;28;20115;-78
2023/05/31 05:34:10;;;;;;;19.85;4.15;;;;;;;12.32;100.00;101835.66;5053720;28;20119;-78
2023/05/31 05:36:36;;;;;;;10.10;3.70;;;;;;;12.40;100.00;101840.38;5052830;28;20058;-78
2023/05/31 05:39:07;;;;;;;15.18;3.55;;;;;;;12.40;100.00;101835.91;5030403;28;20435;-77
2023/05/31 05:41:33;;;;;;;15.77;3.97;;;;;;;12.46;100.00;101836.38;5060135;28;20071;-77
2023/05/31 05:44:00;;;;;;;12.32;3.75;;;;;;;12.55;100.00;101830.31;5070477;28;20389;-78
2023/05/31 05:46:27;;;;;;;12.32;3.92;;;;;;;12.62;100.00;101841.28;5051985;28;20032;-78
2023/05/31 05:48:52;;;;;;;6.50;3.28;;;;;;;12.65;100.00;101841.03;5046424;28;20036;-77
2023/05/31 05:51:22;;;;;;;13.90;4.38;;;;;;;12.69;100.00;101844.31;5052620;28;20037;-77
2023/05/31 05:53:48;;;;;;;9.25;4.35;;;;;;;12.79;100.00;101839.94;5064777;28;20025;-77
2023/05/31 05:56:17;;;;;;;18.75;4.15;;;;;;;12.80;100.00;101838.97;5054034;28;20036;-77
2023/05/31 05:58:53;;;;;;;11.43;4.03;;;;;;;12.84;100.00;101837.75;5057229;28;20051;-78
2023/05/31 06:01:40;;;;;;;;;;;;;;;12.82;100.00;101837.03;5069567;28;20023;-77
2023/05/31 06:04:08;;;;;;;8.50;3.45;;;;;;;12.82;100.00;101834.38;5077150;28;20363;-77
2023/05/31 06:06:35;;;;;;;13.68;3.92;;;;;;;12.82;100.00;101833.53;5051665;28;20403;-77
2023/05/31 06:09:01;;;;;;;13.10;4.93;;;;;;;12.90;100.00;101831.09;5084853;28;20032;-77
2023/05/31 06:11:27;;;;;;;13.13;4.25;;;;;;;12.90;100.00;101829.28;5040361;28;20033;-77
2023/05/31 06:13:57;;;;;;;18.38;4.00;;;;;;;12.90;100.00;101825.78;5056734;28;20477;-78
2023/05/31 06:16:25;;;;;;;14.27;4.15;;;;;;;12.97;100.00;101831.44;5052931;28;20028;-78
2023/05/31 06:18:53;;;;;;;15.30;3.75;;;;;;;12.99;100.00;101818.91;5099276;28;20130;-77
2023/05/31 06:21:19;;;;;;;12.90;3.95;;;;;;;13.08;100.00;101827.91;5046806;28;20035;-77
2023/05/31 06:23:45;;;;;;;15.55;4.40;;;;;;;13.07;100.00;101820.91;5067949;28;20126;-78
2023/05/31 06:26:11;;;;;;;13.77;4.43;;;;;;;13.09;100.00;101818.97;5081946;28;20095;-78
2023/05/31 06:28:37;;;;;;;14.90;4.38;;;;;;;13.14;100.00;101816.75;4986838;28;20035;-77
2023/05/31 06:31:03;;;;;;;9.85;5.00;;;;;;;13.14;100.00;101809.66;5069739;28;20034;-78
2023/05/31 06:33:29;;;;;;;10.77;4.55;;;;;;;13.24;100.00;101811.53;5068087;28;20039;-77
2023/05/31 06:35:54;;;;;;;12.35;3.90;;;;;;;13.27;100.00;101806.81;5070936;28;20039;-78
2023/05/31 06:38:21;;;;;;;10.18;3.90;;;;;;;13.35;100.00;101798.22;5062971;28;20069;-78
2023/05/31 06:40:47;;;;;;;12.95;3.92;;;;;;;13.36;100.00;101799.88;5080894;28;20386;-78
2023/05/31 06:43:15;;;;;;;44.55;4.82;;;;;;;13.33;100.00;101808.09;5072943;28;20055;-77
2023/05/31 06:45:59;;;;;;;9.70;3.80;;;;;;;13.36;100.00;101799.06;5080988;28;20028;-77
2023/05/31 06:48:45;;;;;;;10.48;4.30;;;;;;;13.34;100.00;101807.16;5076596;28;20844;-78
2023/05/31 06:51:49;;;;;;;9.50;3.85;;;;;;;13.44;100.00;101807.19;5027509;28;20433;-77
2023/05/31 06:54:38;;;;;;;11.25;3.70;;;;;;;13.47;100.00;101812.25;5012480;28;20124;-80
2023/05/31 06:57:05;;;;;;;14.63;4.35;;;;;;;13.56;100.00;101805.38;5049090;28;20051;-80
2023/05/31 06:59:31;;;;;;;15.40;3.83;;;;;;;13.56;100.00;101808.03;5083985;28;20032;-80
2023/05/31 07:01:57;;;;;;;12.38;4.50;;;;;;;13.53;100.00;101805.63;5055536;28;20070;-79
2023/05/31 07:04:23;;;;;;;14.10;4.22;;;;;;;13.61;100.00;101807.63;5050025;28;20058;-77
2023/05/31 07:06:49;;;;;;;9.52;3.92;;;;;;;13.64;100.00;101799.41;5078366;28;20031;-77
2023/05/31 07:09:16;;;;;;;17.02;4.93;;;;;;;13.69;100.00;101809.63;5076019;28;20028;-76
2023/05/31 07:12:00;;;;;;;15.77;4.43;;;;;;;13.74;100.00;101805.59;5059104;28;20027;-76
2023/05/31 07:14:30;;;;;;;11.27;4.18;;;;;;;13.81;100.00;101805.91;5068112;28;20034;-77
2023/05/31 07:16:55;;;;;;;15.23;5.60;;;;;;;13.87;100.00;101812.53;5069252;28;20705;-78
2023/05/31 07:19:21;;;;;;;13.90;4.00;;;;;;;14.05;100.00;101807.44;5086528;28;20044;-78
2023/05/31 07:21:48;;;;;;;11.30;4.18;;;;;;;14.32;100.00;101803.31;5092200;28;20031;-77
2023/05/31 07:24:14;;;;;;;15.52;4.55;;;;;;;14.46;100.00;101803.94;5075477;28;20027;-77
2023/05/31 07:26:40;;;;;;;12.90;4.18;;;;;;;14.49;100.00;101808.97;5073124;28;20065;-77
2023/05/31 07:29:05;;;;;;;12.65;4.25;;;;;;;14.66;100.00;101806.63;5077632;28;20028;-77
2023/05/31 07:31:31;;;;;;;14.57;4.22;;;;;;;14.72;100.00;101804.25;5078488;28;20588;-76
2023/05/31 07:33:57;;;;;;;16.25;3.63;;;;;;;14.80;100.00;101803.59;5110867;28;20496;-77
2023/05/31 07:36:26;;;;;;;14.60;4.70;;;;;;;14.79;100.00;101799.25;5091810;28;20088;-77
2023/05/31 07:38:53;;;;;;;10.00;4.45;;;;;;;14.94;100.00;101797.00;5092658;28;20038;-77
2023/05/31 07:41:19;;;;;;;11.30;4.40;;;;;;;14.99;100.00;101793.91;5069338;28;20369;-80
2023/05/31 07:43:45;;;;;;;11.13;4.32;;;;;;;15.11;100.00;101795.44;5106682;28;20119;-80
2023/05/31 07:46:11;;;;;;;15.60;5.00;;;;;;;15.21;100.00;101794.63;5057778;28;20126;-76
2023/05/31 07:48:37;;;;;;;14.60;4.45;;;;;;;15.36;100.00;101795.88;5085410;28;20173;-78
2023/05/31 07:51:03;;;;;;;16.75;4.30;;;;;;;15.49;100.00;101800.03;5083901;28;20034;-76
2023/05/31 07:53:29;;;;;;;9.60;4.03;;;;;;;15.43;100.00;101785.44;5092099;28;20425;-77
2023/05/31 07:55:55;;;;;;;11.27;4.95;;;;;;;15.37;100.00;101784.22;5075713;28;20047;-77
2023/05/31 07:58:21;;;;;;;15.40;5.40;;;;;;;15.41;100.00;101779.44;5091599;28;20040;-77
2023/05/31 08:00:47;;;;;;;13.75;4.90;;;;;;;15.49;100.00;101781.41;5090756;28;20051;-77
2023/05/31 08:03:14;;;;;;;12.32;5.05;;;;;;;15.49;100.00;101784.06;5091185;28;20020;-77
2023/05/31 08:05:39;;;;;;;10.50;4.57;;;;;;;15.45;100.00;101780.00;5073513;28;20513;-77
2023/05/31 08:08:06;;;;;;;15.43;4.82;;;;;;;15.54;100.00;101780.97;5091057;28;20027;-77
2023/05/31 08:10:32;;;;;;;12.90;4.90;;;;;;;15.53;100.00;101774.78;5075641;28;20038;-77
2023/05/31 08:12:58;;;;;;;12.98;4.60;;;;;;;15.60;100.00;101772.38;5106444;28;20051;-77
2023/05/31 08:15:24;;;;;;;14.73;5.07;;;;;;;15.68;100.00;101775.16;5076847;28;20059;-77
2023/05/31 08:17:50;;;;;;;11.85;4.00;;;;;;;15.75;100.00;101768.25;5089373;28;20032;-77
2023/05/31 08:20:16;;;;;;;17.77;5.57;;;;;;;15.82;100.00;101770.34;5089029;28;20035;-80
2023/05/31 08:22:45;;;;;;;13.68;4.80;;;;;;;15.95;100.00;101770.00;5089208;28;20515;-80
2023/05/31 08:25:16;;;;;;;18.65;4.53;;;;;;;15.93;100.00;101764.81;5001751;28;20728;-77
2023/05/31 08:27:42;;;;;;;11.48;4.75;;;;;;;16.00;100.00;101767.78;5092995;28;20031;-77
2023/05/31 08:30:09;;;;;;;13.82;4.55;;;;;;;15.92;100.00;101763.16;5077785;28;20051;-77
2023/05/31 08:32:36;;;;;;;19.35;5.20;;;;;;;15.95;100.00;101767.34;5083708;28;20039;-78
2023/05/31 08:35:03;;;;;;;10.75;5.28;;;;;;;16.05;100.00;101764.66;5111074;28;20111;-77
2023/05/31 08:37:29;;;;;;;14.70;4.68;;;;;;;16.18;100.00;101762.47;5083625;28;20508;-77
2023/05/31 08:39:55;;;;;;;12.50;4.47;;;;;;;16.29;100.00;101753.44;5059298;28;20039;-77
2023/05/31 08:42:25;;;;;;;13.27;5.18;;;;;;;16.46;100.00;101757.13;5070814;28;20032;-77
2023/05/31 08:44:52;;;;;;;11.88;4.18;;;;;;;16.46;100.00;101745.59;5076128;28;20027;-77
2023/05/31 08:47:32;;;;;;;17.55;4.53;;;;;;;16.55;100.00;101746.50;5083795;28;20110;-77
2023/05/31 08:50:00;;;;;;;12.32;5.22;;;;;;;16.53;100.00;101740.50;5079500;28;20039;-77
2023/05/31 08:52:27;;;;;;;13.77;5.03;;;;;;;16.59;100.00;101743.41;5086445;28;20042;-77
2023/05/31 08:54:53;;;;;;;16.77;4.93;;;;;;;16.67;100.00;101742.66;5082626;28;20036;-77
2023/05/31 08:57:20;;;;;;;13.90;4.82;;;;;;;16.79;100.00;101737.91;5091389;28;20034;-77
2023/05/31 08:59:47;;;;;;;11.80;4.82;;;;;;;16.89;100.00;101724.47;5076996;28;20107;-77
2023/05/31 09:02:15;;;;;;;11.07;4.50;;;;;;;16.98;100.00;101733.38;5081827;27;20059;-78
2023/05/31 09:04:41;;;;;;;9.93;4.18;;;;;;;17.13;100.00;101741.69;5071166;28;20288;-77
2023/05/31 09:07:07;;;;;;;10.60;4.75;;;;;;;17.11;100.00;101738.34;5066228;28;20482;-77
2023/05/31 09:09:33;;;;;;;14.57;4.72;;;;;;;17.11;100.00;101741.84;5085153;28;20044;-77
2023/05/31 09:12:00;;;;;;;14.70;5.05;;;;;;;17.15;100.00;101734.38;5083354;28;20043;-77
2023/05/31 09:14:26;;;;;;;16.60;5.20;;;;;;;17.14;100.00;101738.03;5088218;28;20115;-77
2023/05/31 09:16:52;;;;;;;12.98;4.72;;;;;;;17.20;100.00;101731.25;5093961;28;20110;-78
2023/05/31 09:19:18;;;;;;;13.50;4.60;;;;;;;17.26;100.00;101722.59;5090861;28;20497;-78
2023/05/31 09:21:45;;;;;;;16.50;5.82;;;;;;;17.35;100.00;101727.00;5078824;28;20032;-78
2023/05/31 09:24:14;;;;;;;16.60;5.70;;;;;;;17.36;100.00;101730.47;5084375;28;20051;-77
2023/05/31 09:26:50;;;;;;;16.83;5.43;;;;;;;17.52;100.00;101729.75;5068183;28;20035;-78
2023/05/31 09:29:17;;;;;;;13.20;5.88;;;;;;;17.55;100.00;101723.25;5087796;28;20047;-78
2023/05/31 09:31:44;;;;;;;15.20;5.13;;;;;;;17.54;100.00;101725.09;5084539;28;20032;-77
2023/05/31 09:34:27;;;;;;;14.43;5.40;;;;;;;17.66;100.00;101727.47;5077571;28;20028;-78
2023/05/31 09:36:58;;;;;;;17.67;5.57;;;;;;;17.70;100.00;101727.00;5089770;28;20043;-78
2023/05/31 09:39:24;;;;;;;10.05;5.20;;;;;;;17.78;100.00;101718.16;5086759;28;20114;-77
2023/05/31 09:41:51;;;;;;;13.40;5.28;;;;;;;17.93;100.00;101725.59;5079415;28;20131;-78
2023/05/31 09:44:17;;;;;;;13.50;5.03;;;;;;;17.94;100.00;101727.25;5078575;28;20614;-78
2023/05/31 09:46:46;;;;;;;11.70;5.18;;;;;;;17.98;100.00;101723.28;5081535;28;20036;-78
2023/05/31 09:49:12;;;;;;;11.68;5.45;;;;;;;18.04;100.00;101719.94;5056269;28;20516;-78
2023/05/31 09:51:39;;;;;;;14.77;5.05;;;;;;;18.19;100.00;101722.00;5080825;28;20121;-80
2023/05/31 09:54:14;;;;;;;13.27;5.43;;;;;;;18.33;100.00;101717.88;5090321;28;20050;-80
2023/05/31 09:56:41;;;;;;;13.27;5.13;;;;;;;18.30;100.00;101719.00;5059548;28;20107;-77
2023/05/31 09:59:07;;;;;;;14.18;5.25;;;;;;;18.17;100.00;101729.38;5079644;28;20168;-77
2023/05/31 10:01:35;;;;;;;12.23;4.93;;;;;;;18.07;100.00;101730.31;5102810;28;20031;-77
2023/05/31 10:04:06;;;;;;;10.85;4.53;;;;;;;18.07;100.00;101727.66;5083838;28;20043;-77
2023/05/31 10:06:34;;;;;;;13.38;5.03;;;;;;;18.08;100.00;101731.97;5071635;28;20106;-77
2023/05/31 10:09:05;;;;;;;12.90;5.40;;;;;;;18.11;100.00;101722.78;5102767;28;20121;-77
2023/05/31 10:11:35;;;;;;;14.73;5.43;;;;;;;18.18;100.00;101714.97;5057877;28;20036;-77
2023/05/31 10:14:07;;;;;;;10.73;5.28;;;;;;;18.11;100.00;101717.44;5060848;28;20043;-78
2023/05/31 10:16:44;;;;;;;10.70;5.35;;;;;;;18.02;100.00;101718.41;5080514;28;20038;-78
2023/05/31 10:19:12;;;;;;;12.30;4.95;;;;;;;18.10;100.00;101710.41;5080314;28;20055;-77
2023/05/31 10:21:42;;;;;;;12.07;5.30;;;;;;;18.21;100.00;101720.84;5083422;28;20127;-77
2023/05/31 10:24:14;;;;;;;10.32;5.30;;;;;;;18.27;100.00;101716.66;5079547;28;20032;-77
2023/05/31 10:26:58;;;;;;;10.00;4.95;;;;;;;18.41;100.00;101720.53;5070167;28;20059;-81
2023/05/31 10:29:28;;;;;;;12.38;5.55;;;;;;;18.36;100.00;101722.88;5076304;28;20052;-78
2023/05/31 10:31:57;;;;;;;10.90;5.30;;;;;;;18.33;100.00;101721.34;5067180;28;20070;-77
2023/05/31 10:34:26;;;;;;;12.60;5.53;;;;;;;18.37;100.00;101723.72;5086886;28;20478;-77
2023/05/31 10:36:54;;;;;;;10.63;5.50;;;;;;;18.34;100.00;101724.88;5068419;28;20042;-77
2023/05/31 10:39:40;;;;;;;15.13;6.32;;;;;;;18.34;100.00;101722.22;5083184;28;20036;-77
2023/05/31 10:42:35;;;;;;;10.18;5.57;;;;;;;18.50;100.00;101720.56;4985155;28;20036;-77
2023/05/31 10:45:19;;;;;;;11.85;5.78;;;;;;;18.55;100.00;101718.22;5052021;28;20394;-81
2023/05/31 10:47:55;;;;;;;10.60;5.72;;;;;;;18.44;100.00;101719.38;5067620;28;20063;-81
2023/05/31 10:50:21;;;;;;;;;;;;;;;18.28;100.00;101715.69;5086645;28;20097;-77
2023/05/31 10:53:08;;;;;;;12.25;5.38;;;;;;;18.41;100.00;101717.84;5079966;28;19915;-78
2023/05/31 10:55:44;;;;;;;17.58;6.25;;;;;;;18.55;100.00;101718.22;5081345;28;20119;-76
2023/05/31 10:58:28;;;;;;;;;;;;;;;18.52;100.00;101710.53;5073740;28;20024;-77
2023/05/31 11:01:03;;;;;;;9.02;5.43;;;;;;;18.59;100.00;101711.53;5081145;28;20388;-78
2023/05/31 11:03:31;;;;;;;18.83;6.32;;;;;;;18.68;100.00;101710.50;5068244;28;20036;-78
2023/05/31 11:06:03;;;;;;;13.80;5.95;;;;;;;18.80;100.00;101708.34;5086083;28;20491;-77
2023/05/31 11:08:30;;;;;;;12.27;5.88;;;;;;;18.90;100.00;101708.19;5080989;28;20123;-78
2023/05/31 11:11:32;;;;;;;8.77;5.22;;;;;;;18.81;100.00;101704.66;5082153;28;20077;-77
2023/05/31 11:14:00;;;;;;;11.98;5.78;;;;;;;18.77;100.00;101699.81;5069401;28;20039;-77
2023/05/31 11:16:34;;;;;;;14.60;6.50;;;;;;;18.85;100.00;101699.81;5083855;28;20122;-78